Time;durP1;ratioP1;P1;durP2;ratioP2;P2;SDS_P1;SDS_P2;PMS_P1;PMS_P2;Temp;Humidity;BMP_temperature;BMP_pressure;BME280_temperature;BME280_humidity;BME280_pressure;Samples;Min_cycle;Max_cycle;Signal;HPM_P1;HPM_P2
2022/04/13 00:00:55;;;;;;;;;;;11.70;99.90;;;;;;5093556;28;20026;-85
2022/04/13 00:03:22;;;;;;;;;;;11.70;99.90;;;;;;5093597;28;20330;-83
2022/04/13 00:05:49;;;;;;;;;;;11.70;99.90;;;;;;5093442;28;19954;-83
2022/04/13 00:08:16;;;;;;;;;;;11.60;99.90;;;;;;5093267;28;19928;-83
2022/04/13 00:10:44;;;;;;;;;;;11.60;99.90;;;;;;5093226;28;19924;-83
2022/04/13 00:13:11;;;;;;;;;;;11.60;99.90;;;;;;5093393;28;19932;-85
2022/04/13 00:15:38;;;;;;;;;;;11.60;99.90;;;;;;5092966;28;19950;-84
2022/04/13 00:18:05;;;;;;;;;;;11.60;99.90;;;;;;5093519;28;19998;-84
2022/04/13 00:20:32;;;;;;;;;;;11.50;99.90;;;;;;5093788;28;20457;-84
2022/04/13 00:22:59;;;;;;;;;;;11.50;99.90;;;;;;5098183;28;19971;-84
2022/04/13 00:25:25;;;;;;;;;;;11.50;99.90;;;;;;5098015;28;19967;-84
2022/04/13 00:27:54;;;;;;;;;;;11.50;99.90;;;;;;5097792;28;19967;-84
2022/04/13 00:30:20;;;;;;;;;;;11.50;99.90;;;;;;5097641;28;20412;-84
2022/04/13 00:32:47;;;;;;;;;;;11.50;99.90;;;;;;5098124;28;19924;-84
2022/04/13 00:35:14;;;;;;;;;;;10.90;99.90;;;;;;5097821;28;20312;-84
2022/04/13 00:37:41;;;;;;;;;;;11.40;99.90;;;;;;5097692;28;19975;-84
2022/04/13 00:40:08;;;;;;;;;;;11.40;99.90;;;;;;5096858;28;19971;-84
2022/04/13 00:42:35;;;;;;;;;;;11.40;99.90;;;;;;5097634;28;19975;-84
2022/04/13 00:45:03;;;;;;;;;;;11.30;99.90;;;;;;5097742;28;19924;-84
2022/04/13 00:47:30;;;;;;;;;;;11.30;99.90;;;;;;5097755;28;20378;-84
2022/04/13 00:49:57;;;;;;;;;;;11.30;99.90;;;;;;5097634;28;19924;-84
2022/04/13 00:52:26;;;;;;;;;;;11.40;99.90;;;;;;5097058;28;19969;-84
2022/04/13 00:54:54;;;;;;;;;;;11.40;99.90;;;;;;5097106;28;20386;-84
2022/04/13 00:57:21;;;;;;;;;;;11.40;99.90;;;;;;5097590;28;19975;-85
2022/04/13 00:59:48;;;;;;;;;;;11.40;99.90;;;;;;5097588;28;19978;-84
2022/04/13 01:02:17;;;;;;;;;;;11.30;99.90;;;;;;5097034;28;19925;-84
2022/04/13 01:04:45;;;;;;;;;;;10.90;99.90;;;;;;5097317;28;19975;-85
2022/04/13 01:07:12;;;;;;;;;;;11.30;99.90;;;;;;5096943;28;19928;-84
2022/04/13 01:09:40;;;;;;;;;;;11.30;99.90;;;;;;5096822;28;19977;-84
2022/04/13 01:12:07;;;;;;;;;;;11.30;99.90;;;;;;5096631;28;19924;-84
2022/04/13 01:14:35;;;;;;;;;;;11.30;99.90;;;;;;5096709;28;19935;-85
2022/04/13 01:17:02;;;;;;;;;;;11.40;99.90;;;;;;5097059;28;20374;-85
2022/04/13 01:19:31;;;;;;;;;;;11.40;99.90;;;;;;5097241;28;19974;-85
2022/04/13 01:22:03;;;;;;;;;;;11.30;99.90;;;;;;5096825;28;20301;-84
2022/04/13 01:24:32;;;;;;;;;;;11.30;99.90;;;;;;5096976;28;19967;-84
2022/04/13 01:26:59;;;;;;;;;;;11.30;99.90;;;;;;5096636;28;20098;-83
2022/04/13 01:29:26;;;;;;;;;;;11.30;99.90;;;;;;5096672;28;19975;-85
2022/04/13 01:31:53;;;;;;;;;;;11.30;99.90;;;;;;5096887;28;19935;-85
2022/04/13 01:34:20;;;;;;;;;;;11.30;99.90;;;;;;5096486;28;19924;-86
2022/04/13 01:36:47;;;;;;;;;;;11.30;99.90;;;;;;5096830;28;19924;-85
2022/04/13 01:39:14;;;;;;;;;;;11.30;99.90;;;;;;5096305;28;19966;-83
2022/04/13 01:41:42;;;;;;;;;;;11.30;99.90;;;;;;5096824;28;19985;-83
2022/04/13 01:44:08;;;;;;;;;;;11.30;99.90;;;;;;5095946;28;20393;-83
2022/04/13 01:46:35;;;;;;;;;;;11.30;99.90;;;;;;5096150;28;19963;-83
2022/04/13 01:49:03;;;;;;;;;;;11.30;99.90;;;;;;5096281;28;19972;-84
2022/04/13 01:51:30;;;;;;;;;;;11.30;99.90;;;;;;5096483;28;20011;-83
2022/04/13 01:53:57;;;;;;;;;;;11.30;99.90;;;;;;5096360;28;20324;-84
2022/04/13 01:56:23;;;;;;;;;;;11.30;99.90;;;;;;5090447;28;19978;-84
2022/04/13 01:58:51;;;;;;;;;;;11.40;99.90;;;;;;5095162;28;19928;-84
2022/04/13 02:01:19;;;;;;;;;;;11.40;99.90;;;;;;5096014;28;20349;-84
2022/04/13 02:03:45;;;;;;;;;;;11.40;99.90;;;;;;5096215;28;19939;-84
2022/04/13 02:06:14;;;;;;;;;;;11.40;99.90;;;;;;5096045;28;19981;-84
2022/04/13 02:08:41;;;;;;;;;;;11.30;99.90;;;;;;5095993;28;20135;-84
2022/04/13 02:11:08;;;;;;;;;;;11.30;99.90;;;;;;5096096;28;20327;-84
2022/04/13 02:13:34;;;;;;;;;;;11.20;99.90;;;;;;5095518;28;19924;-83
2022/04/13 02:16:03;;;;;;;;;;;11.20;99.90;;;;;;5095695;28;19983;-84
2022/04/13 02:18:29;;;;;;;;;;;11.20;99.90;;;;;;5095257;28;19924;-84
2022/04/13 02:20:56;;;;;;;;;;;11.20;99.90;;;;;;5095419;28;19985;-84
2022/04/13 02:23:23;;;;;;;;;;;11.20;99.90;;;;;;5095013;28;19978;-84
2022/04/13 02:25:49;;;;;;;;;;;11.20;99.90;;;;;;5095268;28;19971;-84
2022/04/13 02:28:16;;;;;;;;;;;11.20;99.90;;;;;;5095033;28;19978;-83
2022/04/13 02:30:43;;;;;;;;;;;11.20;99.90;;;;;;5095116;28;19924;-84
2022/04/13 02:33:11;;;;;;;;;;;11.20;99.90;;;;;;5094640;28;20289;-84
2022/04/13 02:35:38;;;;;;;;;;;11.20;99.90;;;;;;5094877;28;19945;-84
2022/04/13 02:38:04;;;;;;;;;;;11.20;99.90;;;;;;5095136;28;20346;-84
2022/04/13 02:40:31;;;;;;;;;;;11.20;99.90;;;;;;5095564;28;20326;-84
2022/04/13 02:42:58;;;;;;;;;;;11.20;99.90;;;;;;5095251;28;19982;-84
2022/04/13 02:45:25;;;;;;;;;;;11.20;99.90;;;;;;5094660;28;19978;-84
2022/04/13 02:47:51;;;;;;;;;;;11.20;99.90;;;;;;5094646;28;19932;-84
2022/04/13 02:50:19;;;;;;;;;;;11.20;99.90;;;;;;5095410;28;19975;-84
2022/04/13 02:52:46;;;;;;;;;;;11.20;99.90;;;;;;5095032;28;19925;-84
2022/04/13 02:55:13;;;;;;;;;;;11.20;99.90;;;;;;5095219;28;19959;-84
2022/04/13 02:57:40;;;;;;;;;;;11.20;99.90;;;;;;5094616;28;19967;-84
2022/04/13 03:00:07;;;;;;;;;;;11.10;99.90;;;;;;5094958;28;19930;-84
2022/04/13 03:02:34;;;;;;;;;;;11.20;99.90;;;;;;5094689;28;19932;-84
2022/04/13 03:05:01;;;;;;;;;;;11.20;99.90;;;;;;5094623;28;19962;-83
2022/04/13 03:07:30;;;;;;;;;;;11.10;99.90;;;;;;5094969;28;19963;-84
2022/04/13 03:09:56;;;;;;;;;;;10.30;99.90;;;;;;5094849;28;19928;-83
2022/04/13 03:12:24;;;;;;;;;;;11.10;99.90;;;;;;5094209;28;20011;-84
2022/04/13 03:14:51;;;;;;;;;;;11.20;99.90;;;;;;5094560;28;20020;-83
2022/04/13 03:17:17;;;;;;;;;;;11.10;99.90;;;;;;5094866;28;19924;-84
2022/04/13 03:19:44;;;;;;;;;;;11.10;99.90;;;;;;5094450;28;19924;-84
2022/04/13 03:22:11;;;;;;;;;;;11.10;99.90;;;;;;5094651;28;19924;-83
2022/04/13 03:24:39;;;;;;;;;;;11.10;99.90;;;;;;5095052;28;19968;-84
2022/04/13 03:27:06;;;;;;;;;;;11.10;99.90;;;;;;5094650;28;19971;-84
2022/04/13 03:29:33;;;;;;;;;;;11.10;99.90;;;;;;5094773;28;19982;-84
2022/04/13 03:31:59;;;;;;;;;;;11.10;99.90;;;;;;5094196;28;19972;-84
2022/04/13 03:34:27;;;;;;;;;;;11.10;99.90;;;;;;5094137;28;20289;-84
2022/04/13 03:36:53;;;;;;;;;;;11.10;99.90;;;;;;5094509;28;19928;-84
2022/04/13 03:39:20;;;;;;;;;;;11.10;99.90;;;;;;5094101;28;19969;-84
2022/04/13 03:41:48;;;;;;;;;;;11.00;99.90;;;;;;5093740;28;19975;-84
2022/04/13 03:44:15;;;;;;;;;;;11.00;99.90;;;;;;5094466;28;19931;-84
2022/04/13 03:46:42;;;;;;;;;;;11.00;99.90;;;;;;5094332;28;20380;-85
2022/04/13 03:49:08;;;;;;;;;;;11.10;99.90;;;;;;5094294;28;19963;-84
2022/04/13 03:51:36;;;;;;;;;;;11.10;99.90;;;;;;5093714;28;19978;-84
2022/04/13 03:54:03;;;;;;;;;;;11.10;99.90;;;;;;5094014;28;19939;-85
2022/04/13 03:56:30;;;;;;;;;;;11.10;99.90;;;;;;5093483;28;19963;-84
2022/04/13 03:58:58;;;;;;;;;;;11.10;99.90;;;;;;5094310;28;19970;-84
2022/04/13 04:01:25;;;;;;;;;;;11.00;99.90;;;;;;5094005;28;19955;-85
2022/04/13 04:03:52;;;;;;;;;;;11.00;99.90;;;;;;5093724;28;19957;-85
2022/04/13 04:06:19;;;;;;;;;;;11.10;99.90;;;;;;5093981;28;19924;-84
2022/04/13 04:08:46;;;;;;;;;;;11.10;99.90;;;;;;5093826;28;19970;-84
2022/04/13 04:11:12;;;;;;;;;;;11.00;99.90;;;;;;5093806;28;19975;-84
2022/04/13 04:13:39;;;;;;;;;;;11.00;99.90;;;;;;5094095;28;19955;-85
2022/04/13 04:16:08;;;;;;;;;;;11.00;99.90;;;;;;5094042;28;19964;-84
2022/04/13 04:18:34;;;;;;;;;;;11.00;99.90;;;;;;5093858;28;19972;-84
2022/04/13 04:21:01;;;;;;;;;;;11.00;99.90;;;;;;5093738;28;20378;-85
2022/04/13 04:23:28;;;;;;;;;;;11.00;99.90;;;;;;5093540;28;19970;-84
2022/04/13 04:25:55;;;;;;;;;;;10.90;99.90;;;;;;5093521;28;19924;-85
2022/04/13 04:28:21;;;;;;;;;;;10.90;99.90;;;;;;5093829;28;19931;-84
2022/04/13 04:30:48;;;;;;;;;;;11.00;99.90;;;;;;5093366;28;19928;-85
2022/04/13 04:33:17;;;;;;;;;;;10.90;99.90;;;;;;5092944;28;20446;-84
2022/04/13 04:35:46;;;;;;;;;;;10.90;99.90;;;;;;5093300;28;19930;-85
2022/04/13 04:38:13;;;;;;;;;;;10.90;99.90;;;;;;5093223;28;19928;-84
2022/04/13 04:40:40;;;;;;;;;;;10.90;99.90;;;;;;5093199;28;19924;-85
2022/04/13 04:43:07;;;;;;;;;;;10.90;99.90;;;;;;5092670;28;20355;-84
2022/04/13 04:45:34;;;;;;;;;;;10.90;99.90;;;;;;5092823;28;20374;-85
2022/04/13 04:48:04;;;;;;;;;;;10.90;99.90;;;;;;5092742;28;19967;-85
2022/04/13 04:50:33;;;;;;;;;;;11.00;99.90;;;;;;5093027;28;19956;-84
2022/04/13 04:52:59;;;;;;;;;;;11.00;99.90;;;;;;5093103;28;19952;-84
2022/04/13 04:55:26;;;;;;;;;;;11.00;99.90;;;;;;5093384;28;19971;-84
2022/04/13 04:57:53;;;;;;;;;;;10.90;99.90;;;;;;5093554;28;19932;-85
2022/04/13 05:00:21;;;;;;;;;;;10.90;99.90;;;;;;5093423;28;19962;-84
2022/04/13 05:02:47;;;;;;;;;;;10.90;99.90;;;;;;5093297;28;19924;-85
2022/04/13 05:05:14;;;;;;;;;;;10.90;99.90;;;;;;5093454;28;20011;-84
2022/04/13 05:07:43;;;;;;;;;;;10.90;99.90;;;;;;5095203;28;20027;-85
2022/04/13 05:10:10;;;;;;;;;;;10.80;99.90;;;;;;5096903;28;19985;-84
2022/04/13 05:12:42;;;;;;;;;;;10.80;99.90;;;;;;5097283;28;19924;-84
2022/04/13 05:15:09;;;;;;;;;;;10.80;99.90;;;;;;5097072;28;20378;-84
2022/04/13 05:17:37;;;;;;;;;;;10.80;99.90;;;;;;5097263;28;19946;-85
2022/04/13 05:20:04;;;;;;;;;;;10.70;99.90;;;;;;5097345;28;19928;-85
2022/04/13 05:22:31;;;;;;;;;;;10.80;99.90;;;;;;5096850;28;19925;-85
2022/04/13 05:25:02;;;;;;;;;;;10.80;99.90;;;;;;5096974;28;19927;-85
2022/04/13 05:27:29;;;;;;;;;;;10.80;99.90;;;;;;5097145;28;19967;-85
2022/04/13 05:29:57;;;;;;;;;;;10.70;99.90;;;;;;5097665;28;20589;-83
2022/04/13 05:32:23;;;;;;;;;;;10.80;99.90;;;;;;5096937;28;19986;-84
2022/04/13 05:34:50;;;;;;;;;;;10.70;99.90;;;;;;5096867;28;20355;-84
2022/04/13 05:37:17;;;;;;;;;;;10.70;99.90;;;;;;5096162;28;19978;-84
2022/04/13 05:39:45;;;;;;;;;;;10.70;99.90;;;;;;5095671;28;19975;-84
2022/04/13 05:42:13;;;;;;;;;;;10.70;99.90;;;;;;5096598;28;19926;-84
2022/04/13 05:44:40;;;;;;;;;;;10.60;99.90;;;;;;5096123;28;19924;-83
2022/04/13 05:47:07;;;;;;;;;;;10.70;99.90;;;;;;5096176;28;19989;-83
2022/04/13 05:49:34;;;;;;;;;;;10.60;99.90;;;;;;5096343;28;19971;-83
2022/04/13 05:52:00;;;;;;;;;;;10.70;99.90;;;;;;5096193;28;19963;-83
2022/04/13 05:54:27;;;;;;;;;;;10.70;99.90;;;;;;5096207;28;20277;-83
2022/04/13 05:56:54;;;;;;;;;;;10.70;99.90;;;;;;5096498;28;19982;-84
2022/04/13 05:59:22;;;;;;;;;;;10.80;99.90;;;;;;5096100;28;20412;-84
2022/04/13 06:01:49;;;;;;;;;;;10.80;99.90;;;;;;5095890;28;19955;-84
2022/04/13 06:04:16;;;;;;;;;;;10.90;99.90;;;;;;5095924;28;19951;-84
2022/04/13 06:06:43;;;;;;;;;;;10.70;99.90;;;;;;5096124;28;20027;-84
2022/04/13 06:09:10;;;;;;;;;;;10.90;99.90;;;;;;5095397;28;19964;-84
2022/04/13 06:11:36;;;;;;;;;;;10.90;99.90;;;;;;5095783;28;20341;-84
2022/04/13 06:14:03;;;;;;;;;;;11.00;99.90;;;;;;5097448;28;19964;-84
2022/04/13 06:16:31;;;;;;;;;;;11.00;99.90;;;;;;5095391;28;19967;-84
2022/04/13 06:18:58;;;;;;;;;;;11.00;99.90;;;;;;5094923;28;19966;-84
2022/04/13 06:21:25;;;;;;;;;;;11.10;99.90;;;;;;5095918;28;19924;-84
2022/04/13 06:23:51;;;;;;;;;;;11.10;99.90;;;;;;5095501;28;20391;-84
2022/04/13 06:26:18;;;;;;;;;;;11.20;99.90;;;;;;5095761;28;20289;-83
2022/04/13 06:28:45;;;;;;;;;;;11.40;99.90;;;;;;5095446;28;19930;-84
2022/04/13 06:31:12;;;;;;;;;;;11.20;99.90;;;;;;5095270;28;19959;-85
2022/04/13 06:33:40;;;;;;;;;;;11.20;99.90;;;;;;5095820;28;19924;-85
2022/04/13 06:36:08;;;;;;;;;;;11.20;99.90;;;;;;5095565;28;19925;-84
2022/04/13 06:38:35;;;;;;;;;;;11.30;99.90;;;;;;5094794;28;19924;-84
2022/04/13 06:41:02;;;;;;;;;;;11.40;99.90;;;;;;5095141;28;19972;-84
2022/04/13 06:43:29;;;;;;;;;;;11.30;99.90;;;;;;5094899;28;19971;-84
2022/04/13 06:45:55;;;;;;;;;;;11.30;99.90;;;;;;5095308;28;19930;-84
2022/04/13 06:48:22;;;;;;;;;;;11.30;99.90;;;;;;5095321;28;20010;-84
2022/04/13 06:50:50;;;;;;;;;;;11.30;99.90;;;;;;5095145;28;19928;-84
2022/04/13 06:53:18;;;;;;;;;;;11.30;99.90;;;;;;5095028;28;20292;-84
2022/04/13 06:55:45;;;;;;;;;;;11.30;99.90;;;;;;5094858;28;19947;-83
2022/04/13 06:58:12;;;;;;;;;;;11.30;99.90;;;;;;5094885;28;19970;-84
2022/04/13 07:00:38;;;;;;;;;;;11.40;99.90;;;;;;5094507;28;19964;-84
2022/04/13 07:03:05;;;;;;;;;;;11.40;99.90;;;;;;5093743;28;19924;-84
2022/04/13 07:05:32;;;;;;;;;;;11.40;99.90;;;;;;5094537;28;19959;-83
2022/04/13 07:08:02;;;;;;;;;;;12.30;99.90;;;;;;5094673;28;20389;-84
2022/04/13 07:10:30;;;;;;;;;;;11.30;99.90;;;;;;5095557;28;19924;-83
2022/04/13 07:12:57;;;;;;;;;;;11.30;99.90;;;;;;5093900;28;19924;-84
2022/04/13 07:15:24;;;;;;;;;;;11.30;99.90;;;;;;5094629;28;19981;-84
2022/04/13 07:17:51;;;;;;;;;;;11.40;99.90;;;;;;5062634;28;19939;-84
2022/04/13 07:20:18;;;;;;;;;;;9.10;99.90;;;;;;5074589;28;19924;-84
2022/04/13 07:22:45;;;;;;;;;;;11.60;99.90;;;;;;5101997;28;19931;-84
2022/04/13 07:25:14;;;;;;;;;;;11.70;99.90;;;;;;5102136;28;19974;-84
2022/04/13 07:27:41;;;;;;;;;;;11.40;99.90;;;;;;5040398;28;20431;-85
2022/04/13 07:30:08;;;;;;;;;;;12.00;99.90;;;;;;5008614;28;19932;-84
2022/04/13 07:32:35;;;;;;;;;;;11.80;99.90;;;;;;5086308;28;19928;-86
2022/04/13 07:35:02;;;;;;;;;;;12.20;99.90;;;;;;5085535;28;19931;-85
2022/04/13 07:37:29;;;;;;;;;;;12.00;99.90;;;;;;5043180;28;19928;-85
2022/04/13 07:39:57;;;;;;;;;;;12.10;99.90;;;;;;5002682;28;19924;-85
2022/04/13 07:42:28;;;;;;;;;;;12.20;99.90;;;;;;4997497;28;21239;-85
2022/04/13 07:44:55;;;;;;;;;;;12.40;99.90;;;;;;5005744;28;19924;-86
2022/04/13 07:47:22;;;;;;;;;;;12.20;99.90;;;;;;5000780;28;19924;-87
2022/04/13 07:49:50;;;;;;;;;;;12.20;99.90;;;;;;5016879;28;19923;-87
2022/04/13 07:52:17;;;;;;;;;;;12.20;99.90;;;;;;5066495;28;19939;-89
2022/04/13 07:54:44;;;;;;;;;;;12.50;99.90;;;;;;5082662;28;19927;-88
2022/04/13 07:57:12;;;;;;;;;;;12.30;99.90;;;;;;5087249;28;20328;-86
2022/04/13 07:59:41;;;;;;;;;;;12.30;99.90;;;;;;5073380;28;20631;-92
2022/04/13 08:02:09;;;;;;;;;;;11.00;99.90;;;;;;5078303;28;19963;-87
2022/04/13 08:04:36;;;;;;;;;;;12.00;99.90;;;;;;5085744;28;19939;-86
2022/04/13 08:07:02;;;;;;;;;;;12.60;99.90;;;;;;5088391;28;19930;-85
2022/04/13 08:09:29;;;;;;;;;;;12.30;99.90;;;;;;5094144;28;19931;-87
2022/04/13 08:11:57;;;;;;;;;;;12.40;99.90;;;;;;5091507;28;20765;-86
2022/04/13 08:14:24;;;;;;;;;;;12.50;99.90;;;;;;5090395;28;20313;-89
2022/04/13 08:16:52;;;;;;;;;;;12.40;99.90;;;;;;5092423;28;20328;-85
2022/04/13 08:19:20;;;;;;;;;;;12.50;99.90;;;;;;5091942;28;19985;-85
2022/04/13 08:21:46;;;;;;;;;;;12.30;99.90;;;;;;5094247;28;19985;-86
2022/04/13 08:24:17;;;;;;;;;;;12.30;99.90;;;;;;5091312;28;20011;-85
2022/04/13 08:26:44;;;;;;;;;;;12.20;99.90;;;;;;5090417;28;19938;-87
2022/04/13 08:29:10;;;;;;;;;;;12.30;99.90;;;;;;5088927;28;20393;-86
2022/04/13 08:31:37;;;;;;;;;;;12.40;99.90;;;;;;5090279;28;19936;-85
2022/04/13 08:34:05;;;;;;;;;;;12.40;99.90;;;;;;5085708;28;19975;-85
2022/04/13 08:36:32;;;;;;;;;;;12.50;99.90;;;;;;5077537;28;19935;-86
2022/04/13 08:38:59;;;;;;;;;;;12.60;99.90;;;;;;5081154;28;19932;-85
2022/04/13 08:41:31;;;;;;;;;;;12.70;99.90;;;;;;5080542;28;20443;-85
2022/04/13 08:44:02;;;;;;;;;;;12.70;99.90;;;;;;5083873;28;19959;-88
2022/04/13 08:46:29;;;;;;;;;;;12.90;99.90;;;;;;5088745;28;19975;-86
2022/04/13 08:48:56;;;;;;;;;;;13.00;99.90;;;;;;5089949;28;20335;-85
2022/04/13 08:51:25;;;;;;;;;;;13.00;99.90;;;;;;5089317;28;20039;-86
2022/04/13 08:53:58;;;;;;;;;;;13.10;99.90;;;;;;5093317;28;19981;-87
2022/04/13 08:56:25;;;;;;;;;;;12.30;99.90;;;;;;5093539;28;19928;-86
2022/04/13 08:58:56;;;;;;;;;;;13.20;99.90;;;;;;5095390;28;19971;-87
2022/04/13 09:01:27;;;;;;;;;;;13.30;99.90;;;;;;5089419;28;19935;-88
2022/04/13 09:03:55;;;;;;;;;;;12.60;99.90;;;;;;5088627;28;19932;-86
2022/04/13 09:06:23;;;;;;;;;;;13.10;99.90;;;;;;5089334;28;19976;-87
2022/04/13 09:08:53;;;;;;;;;;;13.10;99.90;;;;;;5084234;28;20011;-85
2022/04/13 09:11:21;;;;;;;;;;;12.40;99.90;;;;;;5075121;28;19928;-86
2022/04/13 09:13:48;;;;;;;;;;;13.20;99.90;;;;;;5088796;28;19932;-89
2022/04/13 09:16:15;;;;;;;;;;;13.10;99.90;;;;;;5088249;28;19932;-85
2022/04/13 09:18:42;;;;;;;;;;;15.30;99.90;;;;;;5085192;28;19940;-85
2022/04/13 09:21:09;;;;;;;;;;;13.60;99.90;;;;;;5081311;28;20040;-87
2022/04/13 09:23:36;;;;;;;;;;;13.10;99.90;;;;;;5086116;28;19982;-85
2022/04/13 09:26:04;;;;;;;;;;;13.20;99.90;;;;;;5083846;28;19978;-87
2022/04/13 09:28:31;;;;;;;;;;;13.10;99.90;;;;;;5085959;28;20002;-85
2022/04/13 09:30:58;;;;;;;;;;;13.10;99.90;;;;;;5071780;28;19962;-87
2022/04/13 09:33:25;;;;;;;;;;;13.20;99.90;;;;;;5077197;28;19935;-85
2022/04/13 09:35:53;;;;;;;;;;;13.20;99.90;;;;;;5055375;28;19932;-87
2022/04/13 09:38:20;;;;;;;;;;;13.10;99.90;;;;;;5050541;28;19925;-86
2022/04/13 09:40:47;;;;;;;;;;;13.00;99.90;;;;;;5085624;28;19924;-86
2022/04/13 09:43:16;;;;;;;;;;;12.70;99.90;;;;;;5080700;28;19986;-87
2022/04/13 09:45:45;;;;;;;;;;;10.50;99.90;;;;;;5075862;28;19931;-86
2022/04/13 09:48:12;;;;;;;;;;;15.00;99.90;;;;;;5079498;28;19931;-87
2022/04/13 09:50:39;;;;;;;;;;;13.00;99.90;;;;;;5086059;28;19924;-86
2022/04/13 09:53:07;;;;;;;;;;;13.10;99.90;;;;;;5079784;28;19924;-85
2022/04/13 09:55:34;;;;;;;;;;;13.20;99.90;;;;;;5083329;28;20510;-85
2022/04/13 09:58:05;;;;;;;;;;;13.10;99.90;;;;;;5072188;28;20125;-86
2022/04/13 10:00:34;;;;;;;;;;;13.70;99.90;;;;;;5079079;28;20015;-85
2022/04/13 10:03:07;;;;;;;;;;;13.20;99.90;;;;;;5082072;28;19924;-85
2022/04/13 10:05:35;;;;;;;;;;;13.40;99.90;;;;;;5088965;28;20763;-85
2022/04/13 10:08:02;;;;;;;;;;;12.60;99.90;;;;;;5078275;28;19963;-86
2022/04/13 10:10:29;;;;;;;;;;;13.60;99.90;;;;;;5087678;28;19936;-85
2022/04/13 10:12:56;;;;;;;;;;;13.60;99.90;;;;;;5088748;28;19933;-86
2022/04/13 10:15:26;;;;;;;;;;;13.80;99.90;;;;;;5080701;28;19932;-87
2022/04/13 10:17:59;;;;;;;;;;;13.70;99.90;;;;;;5073069;28;20369;-85
2022/04/13 10:20:30;;;;;;;;;;;13.80;99.90;;;;;;5082660;28;19932;-86
2022/04/13 10:22:57;;;;;;;;;;;14.40;99.90;;;;;;5080531;28;19963;-87
2022/04/13 10:25:26;;;;;;;;;;;13.90;99.90;;;;;;5081047;28;19982;-87
2022/04/13 10:27:54;;;;;;;;;;;13.90;99.90;;;;;;5086454;28;19928;-87
2022/04/13 10:30:28;;;;;;;;;;;13.90;99.90;;;;;;5081051;28;19948;-84
2022/04/13 10:33:00;;;;;;;;;;;14.00;99.90;;;;;;5073200;28;19939;-85
2022/04/13 10:35:28;;;;;;;;;;;14.00;99.90;;;;;;5082281;28;20432;-84
2022/04/13 10:37:55;;;;;;;;;;;14.30;99.90;;;;;;5076899;28;20622;-86
2022/04/13 10:40:23;;;;;;;;;;;14.10;99.90;;;;;;5078416;28;20002;-85
2022/04/13 10:42:51;;;;;;;;;;;14.10;99.90;;;;;;5085213;28;19937;-86
2022/04/13 10:45:18;;;;;;;;;;;14.10;99.90;;;;;;5079493;28;19924;-87
2022/04/13 10:47:50;;;;;;;;;;;14.00;99.90;;;;;;5079027;28;19968;-87
2022/04/13 10:50:30;;;;;;;;;;;14.10;99.90;;;;;;5073934;28;19935;-87
2022/04/13 10:52:59;;;;;;;;;;;14.70;99.90;;;;;;5078171;28;19986;-87
2022/04/13 10:55:29;;;;;;;;;;;14.80;99.90;;;;;;5085121;28;19995;-87
2022/04/13 10:58:00;;;;;;;;;;;14.20;99.90;;;;;;5072121;28;20087;-85
2022/04/13 11:00:28;;;;;;;;;;;14.30;99.90;;;;;;5075965;28;19986;-88
2022/04/13 11:02:59;;;;;;;;;;;14.20;99.90;;;;;;5078241;28;19954;-86
2022/04/13 11:05:31;;;;;;;;;;;14.70;99.90;;;;;;5074098;28;19928;-88
2022/04/13 11:08:03;;;;;;;;;;;14.90;99.90;;;;;;5077691;28;20003;-86
2022/04/13 11:10:32;;;;;;;;;;;14.50;99.90;;;;;;5079406;28;19923;-87
2022/04/13 11:13:00;;;;;;;;;;;14.70;99.90;;;;;;5084994;28;20354;-87
2022/04/13 11:15:40;;;;;;;;;;;14.70;99.90;;;;;;5075060;28;20008;-88
2022/04/13 11:18:10;;;;;;;;;;;14.00;99.90;;;;;;5076691;28;19928;-87
2022/04/13 11:20:39;;;;;;;;;;;14.70;99.90;;;;;;5080217;28;19931;-87
2022/04/13 11:23:10;;;;;;;;;;;14.20;99.90;;;;;;5067257;28;19940;-85
2022/04/13 11:25:43;;;;;;;;;;;14.40;99.90;;;;;;5094177;28;19956;-86
2022/04/13 11:28:10;;;;;;;;;;;14.40;99.90;;;;;;5073755;28;19925;-86
2022/04/13 11:30:52;;;;;;;;;;;14.30;99.90;;;;;;5091160;28;19999;-86
2022/04/13 11:33:19;;;;;;;;;;;14.20;99.90;;;;;;5072802;28;19935;-85
2022/04/13 11:35:47;;;;;;;;;;;14.20;99.90;;;;;;5091608;28;19928;-87
2022/04/13 11:38:16;;;;;;;;;;;14.20;99.90;;;;;;5076962;28;19931;-85
2022/04/13 11:40:58;;;;;;;;;;;14.30;99.90;;;;;;5080540;28;19970;-87
2022/04/13 11:43:25;;;;;;;;;;;14.20;99.90;;;;;;5088448;28;19924;-86
2022/04/13 11:46:09;;;;;;;;;;;14.20;99.90;;;;;;5009203;28;19914;-85
2022/04/13 11:48:36;;;;;;;;;;;14.40;99.90;;;;;;5017879;28;19965;-86
2022/04/13 11:51:34;;;;;;;;;;;14.30;99.90;;;;;;5016059;28;19936;-88
2022/04/13 11:54:08;;;;;;;;;;;14.50;99.90;;;;;;5035031;28;20016;-88
2022/04/13 11:56:37;;;;;;;;;;;14.60;99.90;;;;;;5015276;28;19942;-87
2022/04/13 11:59:04;;;;;;;;;;;14.60;99.90;;;;;;5013558;28;19930;-88
2022/04/13 12:01:34;;;;;;;;;;;14.70;99.90;;;;;;5005258;28;20029;-88
2022/04/13 12:04:05;;;;;;;;;;;14.80;99.90;;;;;;5016019;28;20471;-87
2022/04/13 12:06:36;;;;;;;;;;;14.70;99.90;;;;;;5027588;28;19926;-88
2022/04/13 12:09:03;;;;;;;;;;;14.70;99.90;;;;;;5024252;27;19941;-87
2022/04/13 12:11:43;;;;;;;;;;;14.60;99.90;;;;;;5010745;28;19930;-88
2022/04/13 12:14:10;;;;;;;;;;;14.70;99.90;;;;;;5012832;28;19926;-88
2022/04/13 12:16:39;;;;;;;;;;;14.70;99.90;;;;;;5021111;28;19926;-86
2022/04/13 12:19:07;;;;;;;;;;;14.50;99.90;;;;;;5014457;28;20021;-87
2022/04/13 12:21:36;;;;;;;;;;;14.50;99.90;;;;;;5017378;28;19926;-92
2022/04/13 12:24:03;;;;;;;;;;;14.60;99.90;;;;;;5011546;28;20283;-89
2022/04/13 12:26:36;;;;;;;;;;;14.60;99.90;;;;;;5009175;28;19987;-87
2022/04/13 12:29:11;;;;;;;;;;;14.60;99.90;;;;;;4999209;28;19930;-88
2022/04/13 12:31:46;;;;;;;;;;;14.50;99.90;;;;;;5006629;28;19929;-90
2022/04/13 12:34:18;;;;;;;;;;;14.40;99.90;;;;;;4969019;28;20675;-87
2022/04/13 12:36:50;;;;;;;;;;;14.20;99.90;;;;;;5000656;28;19932;-87
2022/04/13 12:39:17;;;;;;;;;;;14.50;99.90;;;;;;4962683;28;19926;-89
2022/04/13 12:41:44;;;;;;;;;;;14.20;99.90;;;;;;4982097;28;19944;-86
2022/04/13 12:44:11;;;;;;;;;;;14.60;99.90;;;;;;5012337;28;19930;-86
2022/04/13 12:46:38;;;;;;;;;;;14.60;99.90;;;;;;5013802;28;19930;-87
2022/04/13 12:49:07;;;;;;;;;;;15.00;99.90;;;;;;5016866;28;19936;-86
2022/04/13 12:51:34;;;;;;;;;;;14.90;99.90;;;;;;4994190;28;19926;-87
2022/04/13 12:54:02;;;;;;;;;;;15.10;99.90;;;;;;5000073;28;19933;-86
2022/04/13 12:56:30;;;;;;;;;;;14.90;99.90;;;;;;5004900;28;20306;-86
2022/04/13 12:58:57;;;;;;;;;;;15.00;99.90;;;;;;5007935;28;19933;-85
2022/04/13 13:01:25;;;;;;;;;;;15.00;99.90;;;;;;5009067;28;19937;-86
2022/04/13 13:03:52;;;;;;;;;;;15.20;99.90;;;;;;4991176;28;20523;-86
2022/04/13 13:06:20;;;;;;;;;;;15.40;99.90;;;;;;5049260;28;20201;-86
2022/04/13 13:08:51;;;;;;;;;;;15.40;99.90;;;;;;5007001;28;19925;-85
2022/04/13 13:11:18;;;;;;;;;;;15.00;99.90;;;;;;4994601;28;20045;-85
2022/04/13 13:13:44;;;;;;;;;;;15.40;99.90;;;;;;4990670;28;19951;-86
2022/04/13 13:16:26;;;;;;;;;;;15.80;99.90;;;;;;5004327;28;19970;-86
2022/04/13 13:19:06;;;;;;;;;;;15.40;99.90;;;;;;5001109;28;19978;-85
2022/04/13 13:21:35;;;;;;;;;;;15.50;99.90;;;;;;4994974;28;19933;-87
2022/04/13 13:24:02;;;;;;;;;;;15.70;99.90;;;;;;4995234;28;20008;-87
2022/04/13 13:26:29;;;;;;;;;;;15.90;99.90;;;;;;5003906;28;19929;-86
2022/04/13 13:28:56;;;;;;;;;;;15.80;99.90;;;;;;4997159;28;19944;-85
2022/04/13 13:31:25;;;;;;;;;;;15.80;99.90;;;;;;4992759;28;20390;-85
2022/04/13 13:33:55;;;;;;;;;;;15.40;99.90;;;;;;4997360;28;19926;-86
2022/04/13 13:36:22;;;;;;;;;;;15.40;99.90;;;;;;5000463;28;19925;-86
2022/04/13 13:38:50;;;;;;;;;;;15.20;99.90;;;;;;5000921;28;19930;-86
2022/04/13 13:41:21;;;;;;;;;;;15.80;99.90;;;;;;4994830;28;19956;-86
2022/04/13 13:43:52;;;;;;;;;;;15.70;99.90;;;;;;5002504;28;19941;-88
2022/04/13 13:46:21;;;;;;;;;;;15.90;99.90;;;;;;5001690;28;19948;-88
2022/04/13 13:48:49;;;;;;;;;;;15.70;99.90;;;;;;5009419;28;19925;-86
2022/04/13 13:51:16;;;;;;;;;;;16.00;99.90;;;;;;5002449;28;20351;-87
2022/04/13 13:53:45;;;;;;;;;;;15.60;99.90;;;;;;4998062;28;19925;-85
2022/04/13 13:56:13;;;;;;;;;;;15.30;99.90;;;;;;4998208;28;20448;-87
2022/04/13 13:58:40;;;;;;;;;;;15.10;99.90;;;;;;4982068;28;19940;-86
2022/04/13 14:01:07;;;;;;;;;;;15.50;99.90;;;;;;5001276;28;19925;-85
2022/04/13 14:03:34;;;;;;;;;;;15.00;99.90;;;;;;4998882;28;19947;-85
2022/04/13 14:06:01;;;;;;;;;;;15.20;99.90;;;;;;4986916;28;20377;-86
2022/04/13 14:08:28;;;;;;;;;;;16.70;99.90;;;;;;4985965;28;19926;-85
2022/04/13 14:10:56;;;;;;;;;;;15.70;99.90;;;;;;4992566;28;20233;-87
2022/04/13 14:13:24;;;;;;;;;;;16.10;99.90;;;;;;4992762;28;19926;-85
2022/04/13 14:15:51;;;;;;;;;;;13.40;99.90;;;;;;4992566;28;19934;-85
2022/04/13 14:18:18;;;;;;;;;;;15.90;99.90;;;;;;4999344;28;19980;-86
2022/04/13 14:20:47;;;;;;;;;;;15.80;99.90;;;;;;4996392;28;19999;-88